Time;durP1;ratioP1;P1;durP2;ratioP2;P2;SDS_P1;SDS_P2;PMS_P1;PMS_P2;Temp;Humidity;BMP_temperature;BMP_pressure;BME280_temperature;BME280_humidity;BME280_pressure;Samples;Min_cycle;Max_cycle;Signal;HPM_P1;HPM_P2
2023/03/16 00:02:17;;;;;;;2.08;1.38;;;10.50;96.70;;;;;;5042412;28;20032;-70
2023/03/16 00:04:47;;;;;;;3.35;1.33;;;10.40;96.70;;;;;;5023562;28;20055;-70
2023/03/16 00:07:15;;;;;;;1.48;0.93;;;10.30;96.70;;;;;;5035428;28;20037;-70
2023/03/16 00:09:44;;;;;;;1.42;0.98;;;10.40;96.70;;;;;;5038500;28;20068;-70
2023/03/16 00:12:15;;;;;;;2.58;0.88;;;10.30;96.70;;;;;;5041119;28;20120;-71
2023/03/16 00:14:44;;;;;;;3.15;1.20;;;10.10;96.70;;;;;;5038226;28;20136;-70
2023/03/16 00:17:17;;;;;;;2.67;1.35;;;10.20;96.70;;;;;;5039265;28;20040;-70
2023/03/16 00:19:53;;;;;;;5.70;2.25;;;10.20;96.70;;;;;;5020792;28;20065;-70
2023/03/16 00:22:23;;;;;;;2.90;1.45;;;10.10;96.70;;;;;;5040488;28;20042;-70
2023/03/16 00:24:54;;;;;;;3.30;1.30;;;10.10;96.70;;;;;;5080146;28;20049;-70
2023/03/16 00:27:24;;;;;;;2.97;1.30;;;10.10;96.70;;;;;;5078884;28;20456;-71
2023/03/16 00:29:55;;;;;;;2.63;1.10;;;10.10;96.70;;;;;;5074975;28;20106;-70
2023/03/16 00:32:26;;;;;;;2.97;1.27;;;10.10;96.70;;;;;;5079141;28;20060;-70
2023/03/16 00:34:56;;;;;;;3.10;1.30;;;10.00;96.70;;;;;;5062945;28;20177;-70
2023/03/16 00:37:25;;;;;;;1.90;1.08;;;9.80;96.70;;;;;;5061386;28;20044;-70
2023/03/16 00:39:57;;;;;;;2.95;1.02;;;10.00;96.70;;;;;;5079880;28;20405;-69
2023/03/16 00:42:26;;;;;;;1.63;1.10;;;9.80;96.70;;;;;;5047443;28;20052;-70
2023/03/16 00:44:55;;;;;;;2.00;1.10;;;9.70;96.70;;;;;;5060019;28;20432;-70
2023/03/16 00:47:25;;;;;;;1.85;0.93;;;9.90;96.70;;;;;;5063149;28;20124;-70
2023/03/16 00:49:55;;;;;;;1.98;1.02;;;9.80;96.70;;;;;;5062936;28;20056;-70
2023/03/16 00:52:26;;;;;;;3.80;1.45;;;9.80;96.70;;;;;;5081735;28;20032;-70
2023/03/16 00:54:55;;;;;;;1.98;0.90;;;10.00;96.70;;;;;;5059463;28;20051;-70
2023/03/16 00:57:28;;;;;;;1.40;1.00;;;10.00;96.70;;;;;;5058584;28;20780;-70
2023/03/16 00:59:58;;;;;;;2.40;1.00;;;10.00;96.70;;;;;;5078795;28;20586;-70
2023/03/16 01:02:26;;;;;;;2.40;1.20;;;9.90;96.70;;;;;;5064984;28;20051;-70
2023/03/16 01:04:56;;;;;;;1.70;1.13;;;10.00;96.70;;;;;;5078687;28;20405;-70
2023/03/16 01:07:25;;;;;;;1.70;0.82;;;9.90;96.70;;;;;;5074204;28;20040;-70
2023/03/16 01:09:53;;;;;;;3.17;1.00;;;9.80;96.70;;;;;;5060838;28;20072;-70
2023/03/16 01:12:21;;;;;;;1.20;0.85;;;9.70;96.70;;;;;;5057178;28;20048;-70
2023/03/16 01:14:49;;;;;;;2.30;1.27;;;9.70;96.70;;;;;;5058156;28;20071;-70
2023/03/16 01:17:18;;;;;;;2.55;1.15;;;9.70;96.70;;;;;;5065231;28;20572;-70
2023/03/16 01:19:46;;;;;;;1.58;1.00;;;9.70;96.70;;;;;;5064034;28;20146;-70
2023/03/16 01:22:17;;;;;;;2.20;1.20;;;9.70;96.70;;;;;;5067650;28;20043;-70
2023/03/16 01:24:46;;;;;;;2.03;1.20;;;9.80;96.70;;;;;;5056825;28;20094;-70
2023/03/16 01:27:14;;;;;;;2.40;1.30;;;9.70;96.70;;;;;;5079137;28;20093;-70
2023/03/16 01:29:45;;;;;;;1.83;1.20;;;9.70;96.70;;;;;;5057803;28;20044;-70
2023/03/16 01:32:13;;;;;;;2.35;1.20;;;9.80;96.70;;;;;;5069059;28;20550;-70
2023/03/16 01:34:41;;;;;;;1.80;0.80;;;9.80;96.70;;;;;;5039975;28;20040;-70
2023/03/16 01:37:12;;;;;;;2.38;1.10;;;9.80;96.70;;;;;;5063740;28;20045;-70
2023/03/16 01:39:52;;;;;;;1.15;0.93;;;9.70;96.70;;;;;;5060064;28;20509;-70
2023/03/16 01:42:20;;;;;;;1.13;0.90;;;9.70;96.70;;;;;;5079347;28;20647;-70
2023/03/16 01:44:54;;;;;;;1.38;1.00;;;9.70;96.70;;;;;;5044503;28;20028;-70
2023/03/16 01:47:26;;;;;;;2.75;1.10;;;9.70;96.70;;;;;;5055468;28;20098;-69
2023/03/16 01:49:56;;;;;;;1.33;0.80;;;9.50;96.70;;;;;;5067514;28;20073;-70
2023/03/16 01:52:32;;;;;;;1.42;0.75;;;9.30;96.70;;;;;;5060895;28;20048;-70
2023/03/16 01:55:04;;;;;;;1.90;0.88;;;9.20;96.70;;;;;;5056555;28;20092;-70
2023/03/16 01:57:36;;;;;;;1.25;0.77;;;9.00;96.70;;;;;;5082111;28;20051;-70
2023/03/16 02:00:19;;;;;;;3.03;0.98;;;9.10;96.70;;;;;;5054660;28;20108;-70
2023/03/16 02:03:06;;;;;;;1.73;0.80;;;9.00;96.70;;;;;;5054369;28;20044;-70
2023/03/16 02:05:47;;;;;;;1.77;0.88;;;8.90;96.70;;;;;;5058548;28;20040;-70
2023/03/16 02:08:16;;;;;;;1.35;0.85;;;8.90;96.70;;;;;;5053610;28;20564;-70
2023/03/16 02:10:46;;;;;;;1.65;1.10;;;8.80;96.70;;;;;;5035587;28;20040;-69
2023/03/16 02:13:15;;;;;;;2.60;1.00;;;8.90;96.70;;;;;;5049134;28;20044;-69
2023/03/16 02:15:44;;;;;;;2.08;1.05;;;8.80;96.70;;;;;;5053336;28;20040;-70
2023/03/16 02:18:13;;;;;;;1.60;1.00;;;8.90;96.70;;;;;;5059940;28;20602;-69
2023/03/16 02:20:47;;;;;;;1.95;1.08;;;8.90;96.70;;;;;;5035791;28;20037;-70
2023/03/16 02:23:19;;;;;;;1.77;0.98;;;8.80;96.70;;;;;;5049521;28;20041;-70
2023/03/16 02:25:56;;;;;;;2.28;0.90;;;8.80;96.70;;;;;;5054291;28;20128;-70
2023/03/16 02:28:34;;;;;;;2.10;1.10;;;8.80;96.70;;;;;;5055867;28;20044;-69
2023/03/16 02:31:05;;;;;;;1.38;0.70;;;8.60;96.70;;;;;;5060372;28;20194;-72
2023/03/16 02:33:34;;;;;;;1.90;0.95;;;8.80;96.70;;;;;;5031933;28;20499;-70
2023/03/16 02:36:04;;;;;;;2.05;0.82;;;9.00;96.70;;;;;;5059692;28;20033;-70
2023/03/16 02:38:32;;;;;;;2.47;0.77;;;8.90;96.70;;;;;;5049396;28;20335;-70
2023/03/16 02:41:10;;;;;;;1.55;0.80;;;8.90;96.70;;;;;;5057911;28;20036;-70
2023/03/16 02:43:46;;;;;;;1.02;0.60;;;9.00;96.70;;;;;;5054480;28;20722;-70
2023/03/16 02:46:36;;;;;;;1.30;0.90;;;9.00;96.70;;;;;;5036665;28;20151;-70
2023/03/16 02:49:10;;;;;;;0.68;0.50;;;9.00;96.70;;;;;;5052262;28;20045;-70
2023/03/16 02:51:39;;;;;;;2.47;0.73;;;9.00;96.70;;;;;;5052433;28;20072;-70
2023/03/16 02:54:07;;;;;;;1.50;0.90;;;9.00;96.70;;;;;;5054234;28;20397;-70
2023/03/16 02:56:35;;;;;;;1.15;0.80;;;9.10;96.70;;;;;;5055893;28;20598;-70
2023/03/16 02:59:03;;;;;;;1.50;0.85;;;9.00;96.70;;;;;;5064974;28;20486;-70
2023/03/16 03:01:36;;;;;;;2.10;0.93;;;9.20;96.70;;;;;;5054792;28;20044;-70
2023/03/16 03:04:05;;;;;;;2.88;1.40;;;9.20;96.70;;;;;;5051657;28;20115;-70
2023/03/16 03:06:33;;;;;;;1.92;1.15;;;9.00;96.70;;;;;;5065203;28;20408;-70
2023/03/16 03:09:03;;;;;;;2.13;1.10;;;8.90;96.70;;;;;;5060983;28;20084;-69
2023/03/16 03:11:31;;;;;;;1.90;1.02;;;9.10;96.70;;;;;;5059797;28;20044;-69
2023/03/16 03:13:59;;;;;;;1.60;0.90;;;9.20;96.70;;;;;;5055948;28;20091;-69
2023/03/16 03:16:27;;;;;;;2.25;1.17;;;8.90;96.70;;;;;;5056498;28;20169;-69
2023/03/16 03:18:58;;;;;;;2.33;0.75;;;8.50;96.70;;;;;;5060244;28;20048;-69
2023/03/16 03:21:30;;;;;;;2.90;1.25;;;8.50;96.70;;;;;;5062011;28;20047;-69
2023/03/16 03:23:59;;;;;;;1.48;0.90;;;8.80;96.70;;;;;;5061648;28;20101;-69
2023/03/16 03:26:28;;;;;;;1.70;0.95;;;8.80;96.70;;;;;;5061029;28;20124;-69
2023/03/16 03:28:59;;;;;;;2.28;1.20;;;8.70;96.70;;;;;;5063761;28;20135;-69
2023/03/16 03:31:27;;;;;;;1.88;1.17;;;8.60;96.70;;;;;;5038710;28;20052;-69
2023/03/16 03:33:58;;;;;;;2.42;1.23;;;8.80;96.70;;;;;;5057960;28;20439;-69
2023/03/16 03:36:26;;;;;;;2.40;1.13;;;8.70;96.70;;;;;;5056784;28;20079;-69
2023/03/16 03:38:54;;;;;;;1.73;1.00;;;8.60;96.70;;;;;;5060312;28;20039;-69
2023/03/16 03:41:22;;;;;;;2.33;0.95;;;8.30;96.70;;;;;;5057006;28;20098;-69
2023/03/16 03:43:52;;;;;;;1.77;0.80;;;8.50;96.70;;;;;;5058922;28;20048;-69
2023/03/16 03:46:20;;;;;;;2.63;0.70;;;8.60;96.70;;;;;;5054861;28;20139;-69
2023/03/16 03:48:49;;;;;;;1.35;0.80;;;8.80;96.70;;;;;;5060893;28;20043;-69
2023/03/16 03:51:18;;;;;;;2.08;0.75;;;8.80;96.70;;;;;;5055799;28;20543;-69
2023/03/16 03:54:07;;;;;;;1.85;0.90;;;8.70;96.70;;;;;;5060455;28;20052;-69
2023/03/16 03:56:35;;;;;;;1.52;0.90;;;8.60;96.70;;;;;;5056185;28;20049;-70
2023/03/16 03:59:07;;;;;;;2.95;0.80;;;8.70;96.70;;;;;;5059639;28;20548;-70
2023/03/16 04:01:53;;;;;;;2.05;1.13;;;8.70;96.70;;;;;;5053267;28;20134;-70
2023/03/16 04:04:24;;;;;;;1.77;1.00;;;8.80;96.70;;;;;;5056929;28;20056;-69
2023/03/16 04:06:54;;;;;;;2.88;1.60;;;8.80;96.70;;;;;;5063550;28;20102;-69
2023/03/16 04:09:22;;;;;;;2.85;1.30;;;8.80;96.70;;;;;;5064205;28;20033;-70
2023/03/16 04:11:50;;;;;;;3.13;1.27;;;8.70;96.70;;;;;;5056865;28;20141;-70
2023/03/16 04:14:18;;;;;;;3.03;1.10;;;8.70;96.70;;;;;;5060342;28;20069;-70
2023/03/16 04:16:46;;;;;;;1.95;1.10;;;8.60;96.70;;;;;;5055638;28;20045;-70
2023/03/16 04:19:15;;;;;;;2.10;1.15;;;8.50;96.70;;;;;;5060227;28;20041;-70
2023/03/16 04:21:43;;;;;;;3.95;1.55;;;8.50;96.70;;;;;;5060090;28;20615;-70
2023/03/16 04:24:13;;;;;;;3.20;1.70;;;8.50;96.70;;;;;;5041332;28;20525;-69
2023/03/16 04:26:43;;;;;;;3.53;1.50;;;8.40;96.70;;;;;;5055318;28;20045;-70
2023/03/16 04:29:13;;;;;;;3.60;1.73;;;8.30;96.70;;;;;;5038478;28;20059;-69
2023/03/16 04:31:41;;;;;;;2.22;1.42;;;8.20;96.70;;;;;;5055196;28;20040;-70
2023/03/16 04:34:10;;;;;;;2.22;1.42;;;7.80;96.70;;;;;;5056740;28;20066;-69
2023/03/16 04:36:38;;;;;;;4.03;1.65;;;8.00;96.70;;;;;;5058859;28;20036;-70
2023/03/16 04:39:06;;;;;;;3.28;1.73;;;8.20;96.70;;;;;;5055689;28;20140;-70
2023/03/16 04:41:35;;;;;;;4.00;1.70;;;8.20;96.70;;;;;;5056866;28;20040;-70
2023/03/16 04:44:11;;;;;;;4.32;2.45;;;8.20;96.70;;;;;;5042811;28;20060;-70
2023/03/16 04:46:40;;;;;;;3.60;2.15;;;8.10;96.70;;;;;;5058113;28;20044;-69
2023/03/16 04:49:09;;;;;;;4.15;2.80;;;8.10;96.70;;;;;;5058082;28;20071;-69
2023/03/16 04:51:41;;;;;;;6.90;3.40;;;8.20;96.70;;;;;;5054587;28;20129;-70
2023/03/16 04:54:13;;;;;;;4.45;3.00;;;8.20;96.70;;;;;;5042871;28;20036;-69
2023/03/16 04:56:44;;;;;;;5.30;2.35;;;8.20;96.70;;;;;;5057460;28;20053;-70
2023/03/16 04:59:23;;;;;;;6.40;2.28;;;8.20;96.70;;;;;;5055989;28;20044;-70
2023/03/16 05:01:59;;;;;;;2.97;1.80;;;8.10;96.70;;;;;;5055755;28;21537;-70
2023/03/16 05:04:27;;;;;;;3.10;1.90;;;8.00;96.70;;;;;;5056260;28;20402;-70
2023/03/16 05:06:55;;;;;;;3.60;1.90;;;7.90;96.70;;;;;;5059548;28;20060;-69
2023/03/16 05:09:27;;;;;;;2.90;1.98;;;8.10;96.70;;;;;;5056700;28;20044;-70
2023/03/16 05:11:57;;;;;;;4.22;2.10;;;8.20;96.70;;;;;;5056283;28;20044;-70
2023/03/16 05:14:25;;;;;;;5.55;2.67;;;8.20;96.70;;;;;;5056889;28;20076;-69
2023/03/16 05:17:08;;;;;;;5.20;2.70;;;8.20;96.70;;;;;;5056403;28;20036;-70
2023/03/16 05:19:36;;;;;;;3.72;1.45;;;8.10;96.70;;;;;;5052194;28;20201;-69
2023/03/16 05:22:05;;;;;;;3.60;1.70;;;7.90;96.70;;;;;;5043830;28;20461;-69
2023/03/16 05:24:35;;;;;;;2.10;1.05;;;7.90;96.70;;;;;;5057760;28;20130;-70
2023/03/16 05:27:05;;;;;;;2.30;1.15;;;8.00;96.70;;;;;;5044311;28;20133;-70
2023/03/16 05:29:33;;;;;;;2.60;0.90;;;7.90;96.70;;;;;;5056790;28;20068;-71
2023/03/16 05:32:01;;;;;;;1.67;1.00;;;8.10;96.70;;;;;;5058993;28;20421;-72
2023/03/16 05:34:32;;;;;;;3.85;1.05;;;8.00;96.70;;;;;;5053324;28;20502;-71
2023/03/16 05:37:00;;;;;;;1.52;0.73;;;7.90;96.70;;;;;;5041535;28;20044;-72
2023/03/16 05:39:29;;;;;;;1.48;0.85;;;7.90;96.70;;;;;;5056543;28;20048;-72
2023/03/16 05:41:57;;;;;;;2.05;0.70;;;7.80;96.70;;;;;;5044657;28;20048;-72
2023/03/16 05:44:43;;;;;;;1.52;0.70;;;7.90;96.70;;;;;;5050470;28;20166;-72
2023/03/16 05:47:36;;;;;;;2.17;0.88;;;8.00;96.70;;;;;;5056943;28;20041;-72
2023/03/16 05:50:10;;;;;;;3.45;1.63;;;7.90;96.70;;;;;;5057115;28;20044;-71
2023/03/16 05:52:43;;;;;;;3.47;1.88;;;7.90;96.70;;;;;;5053014;28;20064;-71
2023/03/16 05:55:18;;;;;;;3.97;2.15;;;8.10;96.70;;;;;;5041963;28;20590;-73
2023/03/16 05:57:51;;;;;;;2.22;1.55;;;8.00;96.70;;;;;;5055193;28;20049;-72
2023/03/16 06:00:21;;;;;;;1.63;1.10;;;8.10;96.70;;;;;;5057153;28;20048;-71
2023/03/16 06:03:00;;;;;;;2.85;0.90;;;8.10;96.70;;;;;;5058393;28;20049;-71
2023/03/16 06:05:32;;;;;;;4.13;1.15;;;8.00;96.70;;;;;;5049448;28;20629;-71
2023/03/16 06:08:01;;;;;;;3.05;1.20;;;7.90;96.70;;;;;;5057845;28;20055;-72
2023/03/16 06:10:29;;;;;;;1.55;0.90;;;8.00;96.70;;;;;;5059734;28;20045;-72
2023/03/16 06:12:57;;;;;;;3.60;0.90;;;8.00;96.70;;;;;;5041641;28;20068;-71
2023/03/16 06:15:29;;;;;;;3.35;1.02;;;8.10;96.70;;;;;;5048242;28;20773;-71
2023/03/16 06:18:00;;;;;;;2.38;1.27;;;8.10;96.70;;;;;;5053181;28;20132;-71
2023/03/16 06:20:28;;;;;;;4.28;1.45;;;7.90;96.70;;;;;;5060730;28;20494;-71
2023/03/16 06:22:57;;;;;;;2.63;1.13;;;7.90;96.70;;;;;;5055732;28;20044;-71
2023/03/16 06:25:26;;;;;;;5.07;1.33;;;8.00;96.70;;;;;;5056603;28;20052;-71
2023/03/16 06:27:53;;;;;;;5.57;1.70;;;8.20;96.70;;;;;;5038959;28;20036;-71
2023/03/16 06:30:21;;;;;;;2.97;1.30;;;8.20;96.70;;;;;;5043926;28;20075;-71
2023/03/16 06:32:50;;;;;;;2.92;0.95;;;8.30;96.70;;;;;;5051745;28;20044;-71
2023/03/16 06:35:19;;;;;;;2.33;1.08;;;8.30;96.70;;;;;;5055907;28;20040;-71
2023/03/16 06:38:03;;;;;;;1.92;1.08;;;8.20;96.70;;;;;;5060801;28;20048;-71
2023/03/16 06:40:51;;;;;;;1.55;0.90;;;8.20;96.70;;;;;;5047815;28;20462;-72
2023/03/16 06:43:20;;;;;;;4.25;1.38;;;8.20;96.70;;;;;;5049936;28;20049;-73
2023/03/16 06:45:49;;;;;;;3.05;1.45;;;8.20;96.70;;;;;;5069713;28;20045;-72
2023/03/16 06:48:18;;;;;;;3.90;1.80;;;8.20;96.70;;;;;;5059189;28;20056;-72
2023/03/16 06:50:47;;;;;;;3.28;1.38;;;8.20;96.70;;;;;;5064886;28;20040;-73
2023/03/16 06:53:20;;;;;;;2.47;1.17;;;8.20;96.70;;;;;;5066739;28;20041;-72
2023/03/16 06:55:50;;;;;;;3.55;2.08;;;8.20;96.70;;;;;;5054826;28;20052;-73
2023/03/16 06:58:18;;;;;;;4.93;1.98;;;8.40;96.70;;;;;;5062356;28;20079;-72
2023/03/16 07:00:46;;;;;;;6.10;2.10;;;8.40;96.70;;;;;;5053269;28;20048;-72
2023/03/16 07:03:14;;;;;;;3.60;1.58;;;8.40;96.70;;;;;;5060194;28;20528;-72
2023/03/16 07:05:49;;;;;;;5.97;1.67;;;8.50;96.70;;;;;;5055877;28;20052;-72
2023/03/16 07:08:17;;;;;;;2.47;1.23;;;8.60;96.70;;;;;;5054971;28;20053;-72
2023/03/16 07:10:45;;;;;;;3.75;1.75;;;8.60;96.70;;;;;;5069129;28;20114;-72
2023/03/16 07:13:13;;;;;;;3.65;1.67;;;8.70;96.70;;;;;;5061435;28;20060;-72
2023/03/16 07:15:43;;;;;;;3.47;1.60;;;8.70;96.70;;;;;;5056820;28;20080;-72
2023/03/16 07:18:11;;;;;;;4.40;2.00;;;8.70;96.70;;;;;;5079460;28;20051;-73
2023/03/16 07:20:39;;;;;;;3.92;1.90;;;8.40;96.70;;;;;;5069309;28;20048;-71
2023/03/16 07:23:24;;;;;;;3.88;1.85;;;8.50;96.70;;;;;;5068987;28;20053;-72
2023/03/16 07:25:57;;;;;;;4.15;1.83;;;8.70;96.70;;;;;;5050473;28;20060;-73
2023/03/16 07:28:26;;;;;;;5.35;1.83;;;8.90;96.70;;;;;;5057571;28;20053;-72
2023/03/16 07:30:58;;;;;;;5.57;2.58;;;8.90;96.70;;;;;;5059749;28;20053;-73
2023/03/16 07:33:38;;;;;;;6.47;2.83;;;8.90;96.70;;;;;;5066112;28;20060;-73
2023/03/16 07:36:10;;;;;;;6.13;2.40;;;8.90;96.70;;;;;;5050285;28;20548;-72
2023/03/16 07:38:48;;;;;;;;;;;8.90;96.70;;;;;;5064287;28;20051;-73
2023/03/16 07:41:16;;;;;;;5.65;2.25;;;9.10;96.70;;;;;;5074767;28;19931;-72
2023/03/16 07:43:45;;;;;;;5.18;2.70;;;9.20;96.70;;;;;;5081843;28;20301;-73
2023/03/16 07:46:14;;;;;;;4.18;2.17;;;9.30;96.70;;;;;;5064107;28;20048;-73
2023/03/16 07:48:43;;;;;;;5.03;2.97;;;9.30;96.70;;;;;;5082604;28;20068;-73
2023/03/16 07:51:12;;;;;;;6.28;2.70;;;9.40;96.70;;;;;;5082460;28;20052;-73
2023/03/16 07:53:44;;;;;;;4.45;2.22;;;9.40;96.70;;;;;;5047819;28;20055;-72
2023/03/16 07:56:32;;;;;;;3.83;2.22;;;9.50;96.70;;;;;;5017451;28;20047;-72
2023/03/16 07:59:24;;;;;;;3.80;2.55;;;9.70;96.70;;;;;;5033708;28;20041;-72
2023/03/16 08:01:52;;;;;;;4.00;2.00;;;9.70;96.70;;;;;;5053747;28;20166;-73
2023/03/16 08:04:21;;;;;;;2.72;1.95;;;9.70;96.70;;;;;;5043669;28;20059;-72
2023/03/16 08:06:59;;;;;;;3.30;1.67;;;9.80;96.70;;;;;;5043959;28;20063;-73
2023/03/16 08:09:34;;;;;;;3.42;2.08;;;9.90;96.70;;;;;;5042312;28;20048;-72
2023/03/16 08:12:08;;;;;;;3.40;2.50;;;10.00;96.70;;;;;;5023262;28;20041;-72
2023/03/16 08:14:36;;;;;;;5.20;3.83;;;10.10;96.70;;;;;;5013662;28;20418;-72
2023/03/16 08:17:11;;;;;;;8.38;4.45;;;10.10;96.70;;;;;;5026101;28;20080;-73
2023/03/16 08:20:09;;;;;;;5.88;4.80;;;10.20;96.70;;;;;;5039932;28;20556;-72
2023/03/16 08:22:37;;;;;;;4.95;3.72;;;10.30;96.70;;;;;;4960482;28;20971;-74
2023/03/16 08:25:09;;;;;;;4.40;3.15;;;10.40;96.70;;;;;;4973559;28;20105;-73
2023/03/16 08:27:41;;;;;;;5.47;3.33;;;10.40;96.70;;;;;;4984426;28;20084;-73
2023/03/16 08:30:11;;;;;;;3.20;2.70;;;10.50;96.70;;;;;;5000957;28;20077;-74
2023/03/16 08:32:43;;;;;;;3.42;2.30;;;10.60;96.70;;;;;;4998613;28;20045;-73
2023/03/16 08:35:14;;;;;;;3.05;2.42;;;10.60;96.70;;;;;;4979761;28;20160;-74
2023/03/16 08:37:45;;;;;;;2.80;1.25;;;10.80;96.70;;;;;;4971681;28;20050;-72
2023/03/16 08:40:14;;;;;;;2.50;1.30;;;10.90;96.70;;;;;;5006652;28;20053;-72
2023/03/16 08:42:48;;;;;;;5.47;2.70;;;11.00;96.70;;;;;;4993983;28;20088;-72
2023/03/16 08:45:19;;;;;;;5.38;2.38;;;11.10;96.70;;;;;;4968540;28;20042;-72
2023/03/16 08:47:48;;;;;;;2.92;1.73;;;11.20;96.70;;;;;;4985168;28;20061;-72
2023/03/16 08:50:16;;;;;;;5.32;1.50;;;11.30;96.70;;;;;;4984942;28;20116;-72
2023/03/16 08:52:44;;;;;;;3.10;1.90;;;11.40;96.70;;;;;;4985751;28;20057;-71
2023/03/16 08:55:12;;;;;;;2.78;1.52;;;11.40;96.70;;;;;;4991083;28;20462;-72
2023/03/16 08:57:42;;;;;;;2.83;1.40;;;11.50;96.70;;;;;;5006824;28;20049;-71
2023/03/16 09:00:13;;;;;;;3.45;1.80;;;11.60;96.70;;;;;;5024198;28;20080;-73
2023/03/16 09:02:42;;;;;;;5.20;2.35;;;11.70;96.70;;;;;;5060176;28;20044;-72
2023/03/16 09:05:11;;;;;;;3.40;2.10;;;11.70;96.70;;;;;;5034391;28;20056;-73
2023/03/16 09:07:41;;;;;;;3.25;1.60;;;11.80;96.70;;;;;;5053625;28;20125;-72
2023/03/16 09:10:13;;;;;;;3.47;1.50;;;11.80;96.70;;;;;;5055900;28;20537;-72
2023/03/16 09:12:42;;;;;;;4.18;1.67;;;11.90;96.70;;;;;;5057659;28;20071;-72
2023/03/16 09:15:12;;;;;;;3.67;1.30;;;12.00;96.70;;;;;;5059002;28;20040;-73
2023/03/16 09:17:42;;;;;;;2.55;1.10;;;12.10;96.70;;;;;;5061439;28;20040;-72
2023/03/16 09:20:11;;;;;;;1.25;0.90;;;12.10;96.70;;;;;;5049664;28;20402;-72
2023/03/16 09:22:57;;;;;;;1.67;0.90;;;12.10;96.70;;;;;;5056918;28;20052;-73
2023/03/16 09:25:25;;;;;;;1.98;1.20;;;12.10;96.70;;;;;;5063551;28;20525;-72
2023/03/16 09:27:54;;;;;;;2.22;1.30;;;12.20;96.70;;;;;;5074003;28;20051;-72
2023/03/16 09:30:25;;;;;;;2.13;1.15;;;12.30;96.70;;;;;;5056056;28;20077;-73
2023/03/16 09:32:53;;;;;;;4.80;1.58;;;12.30;96.70;;;;;;5063450;28;20097;-72
2023/03/16 09:35:21;;;;;;;2.97;1.90;;;12.30;96.70;;;;;;5072882;28;20035;-73
2023/03/16 09:37:49;;;;;;;3.53;1.88;;;12.30;96.70;;;;;;5061106;28;20406;-73
2023/03/16 09:40:34;;;;;;;2.53;0.90;;;12.40;96.70;;;;;;5069529;28;20529;-72
2023/03/16 09:43:22;;;;;;;2.38;1.33;;;12.60;96.70;;;;;;5041014;28;20045;-73
2023/03/16 09:45:56;;;;;;;;;;;12.80;96.70;;;;;;5052700;28;20048;-73
2023/03/16 09:48:26;;;;;;;5.53;1.42;;;13.00;96.70;;;;;;5081594;28;20431;-73
2023/03/16 09:50:55;;;;;;;1.88;0.95;;;13.10;96.70;;;;;;5068440;28;20040;-73
2023/03/16 09:53:28;;;;;;;2.83;1.33;;;13.30;96.70;;;;;;5070759;28;20090;-72
2023/03/16 09:56:00;;;;;;;4.22;1.50;;;13.40;96.70;;;;;;5079885;28;20039;-73
2023/03/16 09:58:31;;;;;;;3.08;1.50;;;13.50;96.70;;;;;;5081027;28;20047;-72
2023/03/16 10:01:09;;;;;;;3.25;1.92;;;13.60;96.70;;;;;;5066721;28;20147;-72
2023/03/16 10:03:58;;;;;;;2.78;1.60;;;13.70;96.70;;;;;;5071922;28;20512;-72
2023/03/16 10:06:27;;;;;;;3.95;1.67;;;13.70;96.70;;;;;;5065353;28;20088;-72
2023/03/16 10:09:05;;;;;;;1.40;1.00;;;13.80;96.70;;;;;;5015210;28;20110;-73
2023/03/16 10:11:37;;;;;;;2.63;1.40;;;13.90;96.70;;;;;;5059309;28;20048;-72
2023/03/16 10:14:16;;;;;;;2.10;1.10;;;14.00;96.70;;;;;;5078982;28;20463;-73
2023/03/16 10:16:50;;;;;;;1.85;1.27;;;14.10;96.70;;;;;;5056447;28;20052;-72
2023/03/16 10:19:24;;;;;;;4.22;1.00;;;14.00;96.70;;;;;;5065791;28;20045;-73
2023/03/16 10:21:55;;;;;;;2.47;0.70;;;14.10;96.70;;;;;;5069199;28;20048;-73
2023/03/16 10:24:35;;;;;;;1.73;0.80;;;14.30;96.70;;;;;;5089112;28;20060;-73
2023/03/16 10:27:07;;;;;;;0.90;0.50;;;14.40;96.70;;;;;;5074661;28;20039;-73
2023/03/16 10:29:36;;;;;;;1.40;0.73;;;14.50;96.70;;;;;;5086448;28;20079;-73
2023/03/16 10:32:13;;;;;;;2.63;1.50;;;14.60;96.70;;;;;;5071056;28;20029;-72
2023/03/16 10:34:44;;;;;;;1.63;0.70;;;14.70;96.70;;;;;;5087794;28;20044;-73
2023/03/16 10:37:13;;;;;;;0.73;0.47;;;14.80;96.70;;;;;;5082295;28;20481;-73
2023/03/16 10:39:44;;;;;;;1.33;0.70;;;14.90;96.70;;;;;;5082089;28;20036;-73
2023/03/16 10:42:17;;;;;;;1.38;0.75;;;15.00;96.70;;;;;;5060637;28;20517;-73
2023/03/16 10:44:46;;;;;;;2.78;0.32;;;15.10;96.70;;;;;;5098960;28;20044;-73
2023/03/16 10:47:21;;;;;;;1.20;0.60;;;15.30;96.70;;;;;;5040798;28;20579;-73
2023/03/16 10:49:50;;;;;;;2.25;0.60;;;15.40;96.70;;;;;;5088279;28;20044;-73
2023/03/16 10:52:25;;;;;;;1.45;0.50;;;15.40;96.70;;;;;;5079203;28;20032;-72
2023/03/16 10:54:55;;;;;;;2.22;0.57;;;15.40;96.70;;;;;;5082910;28;20048;-73
2023/03/16 10:57:25;;;;;;;1.52;0.52;;;15.50;96.70;;;;;;5056709;28;20044;-73
2023/03/16 10:59:58;;;;;;;1.70;0.80;;;15.50;96.70;;;;;;5098902;28;20044;-72
2023/03/16 11:02:33;;;;;;;1.38;0.55;;;15.50;96.70;;;;;;5089310;28;20040;-73
2023/03/16 11:05:15;;;;;;;1.20;0.60;;;15.70;96.70;;;;;;5063992;28;20044;-73
2023/03/16 11:07:50;;;;;;;1.88;0.63;;;15.90;96.70;;;;;;5083552;28;20062;-73
2023/03/16 11:10:31;;;;;;;2.17;0.63;;;15.90;96.70;;;;;;5069086;28;20517;-73
2023/03/16 11:13:03;;;;;;;1.23;0.70;;;16.10;96.70;;;;;;5094120;28;20051;-73
2023/03/16 11:15:39;;;;;;;2.15;0.40;;;16.30;96.70;;;;;;5095328;28;20051;-73
2023/03/16 11:18:13;;;;;;;;;;;16.20;96.70;;;;;;5096281;28;20114;-73
2023/03/16 11:20:41;;;;;;;0.75;0.30;;;16.10;96.70;;;;;;5098206;28;19962;-74
2023/03/16 11:23:13;;;;;;;1.77;0.50;;;16.20;96.70;;;;;;5094158;28;20077;-73
2023/03/16 11:25:46;;;;;;;0.90;0.40;;;16.20;96.70;;;;;;5096403;28;20043;-73
2023/03/16 11:28:21;;;;;;;2.15;0.30;;;16.30;96.70;;;;;;5087221;28;20397;-72
2023/03/16 11:31:01;;;;;;;0.90;0.40;;;16.50;95.60;;;;;;5075894;28;20051;-73
2023/03/16 11:33:34;;;;;;;0.70;0.40;;;16.70;95.30;;;;;;5066658;28;20454;-74
2023/03/16 11:36:18;;;;;;;1.10;0.38;;;16.70;93.70;;;;;;5067150;28;20445;-72
2023/03/16 11:38:57;;;;;;;2.38;0.50;;;16.70;92.30;;;;;;5087618;28;20067;-73
2023/03/16 11:41:34;;;;;;;0.40;0.30;;;16.80;92.90;;;;;;5074875;28;20403;-75
2023/03/16 11:44:09;;;;;;;1.73;0.28;;;16.90;89.50;;;;;;5062232;28;20062;-73
2023/03/16 11:46:47;;;;;;;0.60;0.35;;;17.00;88.70;;;;;;5103826;28;20043;-74
2023/03/16 11:49:45;;;;;;;0.47;0.30;;;17.20;88.70;;;;;;5095611;28;20430;-73
2023/03/16 11:52:22;;;;;;;0.55;0.20;;;17.20;89.20;;;;;;5079812;28;20054;-73
2023/03/16 11:55:00;;;;;;;0.32;0.20;;;17.20;89.30;;;;;;5083158;28;20405;-73
2023/03/16 11:57:37;;;;;;;1.38;0.30;;;17.20;88.10;;;;;;5083038;28;20586;-73
2023/03/16 12:00:30;;;;;;;0.68;0.30;;;17.20;89.30;;;;;;5082348;28;20051;-73
2023/03/16 12:03:13;;;;;;;0.63;0.30;;;17.50;90.10;;;;;;5065343;28;20496;-73
2023/03/16 12:06:01;;;;;;;0.60;0.40;;;17.50;87.90;;;;;;5097950;28;20047;-73
2023/03/16 12:09:06;;;;;;;0.70;0.30;;;17.60;87.70;;;;;;5075833;28;20117;-73
2023/03/16 12:11:41;;;;;;;0.45;0.30;;;17.70;89.70;;;;;;5067537;28;20060;-74
2023/03/16 12:14:17;;;;;;;1.05;0.30;;;17.70;87.00;;;;;;5045149;28;20140;-74
2023/03/16 12:16:51;;;;;;;0.95;0.38;;;17.70;85.80;;;;;;5068154;28;20056;-72
2023/03/16 12:19:25;;;;;;;0.70;0.30;;;17.70;85.70;;;;;;5061885;28;20044;-74
2023/03/16 12:22:07;;;;;;;2.95;0.43;;;17.80;85.40;;;;;;5064444;28;20051;-73
2023/03/16 12:24:45;;;;;;;1.48;0.45;;;17.90;87.90;;;;;;5097538;28;20134;-74
2023/03/16 12:27:21;;;;;;;0.40;0.30;;;18.00;88.90;;;;;;5083174;28;20109;-74
2023/03/16 12:30:03;;;;;;;1.80;0.40;;;18.10;89.50;;;;;;5069831;28;20499;-74
2023/03/16 12:32:41;;;;;;;9.52;6.80;;;18.20;88.60;;;;;;5095181;28;20069;-74
2023/03/16 12:35:26;;;;;;;1.75;0.82;;;18.30;87.70;;;;;;5043941;28;20422;-74
2023/03/16 12:38:19;;;;;;;4.68;2.22;;;18.30;85.50;;;;;;5038377;28;20122;-74
2023/03/16 12:41:09;;;;;;;2.97;1.00;;;18.30;88.20;;;;;;5047487;28;20501;-72
2023/03/16 12:43:47;;;;;;;1.25;0.40;;;18.30;89.50;;;;;;5063010;28;20067;-72
2023/03/16 12:46:23;;;;;;;6.80;3.22;;;18.30;89.50;;;;;;5077537;28;20074;-72
2023/03/16 12:48:55;;;;;;;10.15;6.10;;;18.20;88.60;;;;;;5089895;28;20044;-72
2023/03/16 12:51:32;;;;;;;2.75;1.42;;;18.00;88.60;;;;;;5062987;28;20100;-72
2023/03/16 12:54:04;;;;;;;3.40;0.90;;;18.10;89.70;;;;;;5063805;28;20044;-72
2023/03/16 12:56:35;;;;;;;2.45;1.02;;;18.20;89.40;;;;;;5083163;28;20079;-72
2023/03/16 12:59:06;;;;;;;1.38;0.75;;;18.10;89.60;;;;;;5082681;28;20637;-72
2023/03/16 13:01:41;;;;;;;1.38;0.60;;;18.30;88.70;;;;;;5078759;28;20090;-72
2023/03/16 13:04:13;;;;;;;1.58;0.45;;;18.50;87.50;;;;;;5068853;28;20054;-72
2023/03/16 13:06:44;;;;;;;2.55;0.90;;;18.60;88.00;;;;;;5085103;28;20055;-71
2023/03/16 13:09:20;;;;;;;1.98;0.40;;;18.70;86.10;;;;;;5058672;28;20123;-71
2023/03/16 13:11:49;;;;;;;0.80;0.40;;;18.80;87.30;;;;;;5083112;28;20047;-72
2023/03/16 13:14:37;;;;;;;2.03;0.52;;;18.90;88.30;;;;;;5090165;28;20043;-73
2023/03/16 13:17:26;;;;;;;1.00;0.30;;;18.90;87.50;;;;;;5075793;28;20067;-72
2023/03/16 13:20:14;;;;;;;0.60;0.35;;;19.00;86.60;;;;;;5073334;28;20044;-72
2023/03/16 13:23:26;;;;;;;0.90;0.40;;;19.00;88.30;;;;;;5076505;28;20055;-72